createdAt,value
2018-12-22T00:00:03.349Z,8.13
2018-12-22T00:01:03.310Z,8.12
2018-12-22T00:02:03.303Z,8.09
2018-12-22T00:03:05.938Z,8.06
2018-12-22T00:04:03.275Z,8.09
2018-12-22T00:05:03.265Z,8.08
2018-12-22T00:06:03.272Z,8.12
2018-12-22T00:07:03.243Z,8.12
2018-12-22T00:08:03.254Z,8.08
2018-12-22T00:09:03.216Z,8.10
2018-12-22T00:10:03.223Z,8.13
2018-12-22T00:11:06.138Z,8.20
2018-12-22T00:12:03.247Z,8.12
2018-12-22T00:13:03.180Z,8.13
2018-12-22T00:14:03.171Z,8.09
2018-12-22T00:15:03.159Z,8.12
2018-12-22T00:16:03.152Z,8.16
2018-12-22T00:17:03.132Z,8.13
2018-12-22T00:18:03.136Z,8.16
2018-12-22T00:19:03.110Z,8.09
2018-12-22T00:20:03.099Z,8.13
2018-12-22T00:21:03.100Z,8.12
2018-12-22T00:22:03.076Z,8.16
2018-12-22T00:23:03.064Z,8.09
2018-12-22T00:24:03.065Z,8.08
2018-12-22T00:25:03.064Z,8.01
2018-12-22T00:26:03.029Z,7.97
2018-12-22T00:27:03.025Z,8.10
2018-12-22T00:28:03.057Z,8.03
2018-12-22T00:29:03.005Z,8.05
2018-12-22T00:30:03.002Z,7.95
2018-12-22T00:31:02.973Z,7.97
2018-12-22T00:32:02.965Z,8.00
2018-12-22T00:33:02.957Z,8.01
2018-12-22T00:34:02.945Z,7.97
2018-12-22T00:35:02.957Z,7.98
2018-12-22T00:36:02.921Z,7.97
2018-12-22T00:37:02.909Z,7.95
2018-12-22T00:38:02.898Z,8.05
2018-12-22T00:39:02.881Z,7.97
2018-12-22T00:40:02.897Z,8.08
2018-12-22T00:41:02.864Z,8.01
2018-12-22T00:42:02.857Z,7.94
2018-12-22T00:43:02.856Z,8.00
2018-12-22T00:44:02.827Z,8.08
2018-12-22T00:45:02.818Z,8.00
2018-12-22T00:46:02.822Z,8.08
2018-12-22T00:47:02.798Z,7.97
2018-12-22T00:48:02.794Z,8.06
2018-12-22T00:49:02.774Z,7.97
2018-12-22T00:50:02.763Z,8.10
2018-12-22T00:51:02.751Z,8.03
2018-12-22T00:52:02.759Z,8.03
2018-12-22T00:53:02.731Z,8.09
2018-12-22T00:54:02.720Z,8.12
2018-12-22T00:55:02.706Z,8.15
2018-12-22T00:56:02.695Z,8.13
2018-12-22T00:57:02.688Z,8.16
2018-12-22T00:58:02.695Z,8.18
2018-12-22T00:59:02.662Z,8.24
2018-12-22T01:00:02.659Z,8.28
2018-12-22T01:01:02.642Z,8.24
2018-12-22T01:02:02.624Z,8.26
2018-12-22T01:03:02.644Z,8.24
2018-12-22T01:04:02.607Z,8.28
2018-12-22T01:05:02.600Z,8.27
2018-12-22T01:06:02.588Z,8.30
2018-12-22T01:07:02.571Z,8.26
2018-12-22T01:08:02.568Z,8.18
2018-12-22T01:09:02.563Z,8.27
2018-12-22T01:10:02.543Z,8.16
2018-12-22T01:11:02.531Z,8.15
2018-12-22T01:12:02.520Z,8.16
2018-12-22T01:13:02.512Z,8.20
2018-12-22T01:14:02.491Z,8.18
2018-12-22T01:15:02.533Z,8.16
2018-12-22T01:16:02.474Z,8.16
2018-12-22T01:17:02.460Z,8.09
2018-12-22T01:18:02.456Z,8.13
2018-12-22T01:19:02.437Z,8.13
2018-12-22T01:20:02.428Z,8.05
2018-12-22T01:21:02.436Z,8.12
2018-12-22T01:22:02.400Z,8.08
2018-12-22T01:23:02.391Z,8.08
2018-12-22T01:24:02.385Z,8.10
2018-12-22T01:25:02.378Z,8.12
2018-12-22T01:26:02.364Z,8.06
2018-12-22T01:27:02.368Z,8.01
2018-12-22T01:28:02.336Z,8.08
2018-12-22T01:29:02.324Z,8.06
2018-12-22T01:30:02.320Z,8.09
2018-12-22T01:31:02.308Z,7.98
2018-12-22T01:32:02.313Z,8.01
2018-12-22T01:33:02.288Z,7.95
2018-12-22T01:34:02.273Z,7.98
2018-12-22T01:35:02.257Z,7.97
2018-12-22T01:36:02.252Z,7.95
2018-12-22T01:37:02.241Z,7.94
2018-12-22T01:38:02.241Z,8.00
2018-12-22T01:39:02.209Z,8.00
2018-12-22T01:40:02.202Z,7.97
2018-12-22T01:41:02.201Z,7.85
2018-12-22T01:42:02.196Z,7.98
2018-12-22T01:43:02.168Z,8.00
2018-12-22T01:44:02.168Z,7.91
2018-12-22T01:45:02.145Z,7.95
2018-12-22T01:46:02.142Z,7.98
2018-12-22T01:47:02.133Z,8.00
2018-12-22T01:48:02.108Z,7.94
2018-12-22T01:49:02.158Z,7.98
2018-12-22T01:50:02.090Z,7.94
2018-12-22T01:51:02.076Z,7.98
2018-12-22T01:52:02.064Z,7.95
2018-12-22T01:53:02.064Z,8.03
2018-12-22T01:54:02.044Z,7.90
2018-12-22T01:55:02.044Z,7.94
2018-12-22T01:56:02.017Z,7.95
2018-12-22T01:57:02.008Z,7.87
2018-12-22T01:58:02.000Z,7.88
2018-12-22T01:59:01.992Z,7.95
2018-12-22T02:00:01.996Z,8.01
2018-12-22T02:01:01.968Z,8.00
2018-12-22T02:02:01.960Z,7.91
2018-12-22T02:03:01.946Z,7.98
2018-12-22T02:04:01.932Z,7.98
2018-12-22T02:05:01.928Z,7.95
2018-12-22T02:06:01.933Z,8.01
2018-12-22T02:07:01.898Z,7.97
2018-12-22T02:08:01.888Z,8.05
2018-12-22T02:09:01.881Z,8.00
2018-12-22T02:10:01.869Z,7.95
2018-12-22T02:11:01.849Z,8.00
2018-12-22T02:12:01.852Z,8.08
2018-12-22T02:13:01.828Z,8.12
2018-12-22T02:14:01.848Z,8.20
2018-12-22T02:15:01.808Z,8.16
2018-12-22T02:16:01.797Z,8.15
2018-12-22T02:17:01.785Z,8.16
2018-12-22T02:18:01.773Z,8.16
2018-12-22T02:19:01.765Z,8.20
2018-12-22T02:20:01.772Z,8.18
2018-12-22T02:21:01.738Z,8.26
2018-12-22T02:22:01.730Z,8.31
2018-12-22T02:23:01.717Z,8.30
2018-12-22T02:24:01.704Z,8.27
2018-12-22T02:25:01.694Z,8.30
2018-12-22T02:26:01.705Z,8.34
2018-12-22T02:27:01.668Z,8.36
2018-12-22T02:28:01.660Z,8.28
2018-12-22T02:29:01.650Z,8.38
2018-12-22T02:30:01.640Z,8.37
2018-12-22T02:31:01.640Z,8.37
2018-12-22T02:32:01.620Z,8.36
2018-12-22T02:33:01.608Z,8.36
2018-12-22T02:34:01.603Z,8.42
2018-12-22T02:35:01.598Z,8.36
2018-12-22T02:36:01.572Z,8.38
2018-12-22T02:37:01.589Z,8.42
2018-12-22T02:38:01.557Z,8.45
2018-12-22T02:39:01.555Z,8.45
2018-12-22T02:40:01.525Z,8.41
2018-12-22T02:41:01.517Z,8.48
2018-12-22T02:42:01.514Z,8.52
2018-12-22T02:43:01.513Z,8.61
2018-12-22T02:44:01.496Z,8.60
2018-12-22T02:45:01.484Z,8.64
2018-12-22T02:46:01.463Z,8.61
2018-12-22T02:47:01.453Z,8.58
2018-12-22T02:48:01.437Z,8.51
2018-12-22T02:49:01.442Z,8.53
2018-12-22T02:50:01.413Z,8.52
2018-12-22T02:51:01.401Z,8.49
2018-12-22T02:52:01.389Z,8.61
2018-12-22T02:53:01.389Z,8.60
2018-12-22T02:54:01.381Z,8.63
2018-12-22T02:55:01.383Z,8.60
2018-12-22T02:56:01.346Z,8.63
2018-12-22T02:57:01.333Z,8.64
2018-12-22T02:58:01.326Z,8.60
2018-12-22T02:59:05.888Z,8.56
2018-12-22T03:00:02.326Z,8.60
2018-12-22T03:01:01.289Z,8.61
2018-12-22T03:02:01.277Z,8.60
2018-12-22T03:03:01.269Z,8.55
2018-12-22T03:04:01.255Z,8.55
2018-12-22T03:05:01.254Z,8.58
2018-12-22T03:06:01.241Z,8.61
2018-12-22T03:07:01.238Z,8.67
2018-12-22T03:08:01.218Z,8.60
2018-12-22T03:09:01.202Z,8.61
2018-12-22T03:10:01.191Z,8.64
2018-12-22T03:11:01.182Z,8.58
2018-12-22T03:12:01.160Z,8.61
2018-12-22T03:13:01.168Z,8.56
2018-12-22T03:14:01.142Z,8.51
2018-12-22T03:15:01.129Z,8.51
2018-12-22T03:16:01.119Z,8.60
2018-12-22T03:17:01.113Z,8.61
2018-12-22T03:18:01.093Z,8.58
2018-12-22T03:19:01.115Z,8.55
2018-12-22T03:20:01.078Z,8.58
2018-12-22T03:21:01.061Z,8.48
2018-12-22T03:22:01.053Z,8.52
2018-12-22T03:23:01.048Z,8.58
2018-12-22T03:24:01.032Z,8.46
2018-12-22T03:25:01.033Z,8.42
2018-12-22T03:26:01.009Z,8.45
2018-12-22T03:27:01.041Z,8.41
2018-12-22T03:28:00.981Z,8.52
2018-12-22T03:29:00.977Z,8.46
2018-12-22T03:30:00.967Z,8.53
2018-12-22T03:31:00.966Z,8.58
2018-12-22T03:32:00.938Z,8.55
2018-12-22T03:33:00.926Z,8.52
2018-12-22T03:34:00.913Z,8.51
2018-12-22T03:35:00.905Z,8.55
2018-12-22T03:36:00.913Z,8.48
2018-12-22T03:37:00.892Z,8.53
2018-12-22T03:38:00.877Z,8.44
2018-12-22T03:39:00.861Z,8.45
2018-12-22T03:40:00.848Z,8.42
2018-12-22T03:41:00.837Z,8.49
2018-12-22T03:42:00.845Z,8.46
2018-12-22T03:43:00.818Z,8.38
2018-12-22T03:44:00.829Z,8.44
2018-12-22T03:45:00.793Z,8.38
2018-12-22T03:46:00.789Z,8.36
2018-12-22T03:47:00.774Z,8.38
2018-12-22T03:48:00.770Z,8.37
2018-12-22T03:49:00.753Z,8.38
2018-12-22T03:50:00.736Z,8.33
2018-12-22T03:51:00.729Z,8.37
2018-12-22T03:52:00.717Z,8.36
2018-12-22T03:53:00.733Z,8.41
2018-12-22T03:54:00.693Z,8.36
2018-12-22T03:55:00.682Z,8.37
2018-12-22T03:56:00.684Z,8.42
2018-12-22T03:57:00.660Z,8.34
2018-12-22T03:58:00.648Z,8.36
2018-12-22T03:59:00.660Z,8.27
2018-12-22T04:00:00.630Z,8.28
2018-12-22T04:01:00.620Z,8.34
2018-12-22T04:02:00.604Z,8.33
2018-12-22T04:03:00.593Z,8.42
2018-12-22T04:04:00.593Z,8.31
2018-12-22T04:05:00.598Z,8.33
2018-12-22T04:06:00.569Z,8.38
2018-12-22T04:07:00.550Z,8.30
2018-12-22T04:08:00.532Z,8.26
2018-12-22T04:09:00.524Z,8.34
2018-12-22T04:10:00.520Z,8.30
2018-12-22T04:11:00.516Z,8.31
2018-12-22T04:12:00.512Z,8.34
2018-12-22T04:13:00.480Z,8.31
2018-12-22T04:14:00.461Z,8.27
2018-12-22T04:15:00.459Z,8.31
2018-12-22T04:16:00.473Z,8.33
2018-12-22T04:17:00.428Z,8.33
2018-12-22T04:18:00.429Z,8.31
2018-12-22T04:19:00.411Z,8.28
2018-12-22T04:20:00.393Z,8.23
2018-12-22T04:21:00.387Z,8.24
2018-12-22T04:22:00.405Z,8.31
2018-12-22T04:23:00.368Z,8.30
2018-12-22T04:24:00.351Z,8.28
2018-12-22T04:25:00.345Z,8.27
2018-12-22T04:26:00.329Z,8.30
2018-12-22T04:27:00.319Z,8.30
2018-12-22T04:28:00.335Z,8.31
2018-12-22T04:29:00.295Z,8.24
2018-12-22T04:30:00.283Z,8.30
2018-12-22T04:31:00.275Z,8.23
2018-12-22T04:32:00.267Z,8.26
2018-12-22T04:33:00.251Z,8.27
2018-12-22T04:34:00.264Z,8.28
2018-12-22T04:35:00.256Z,8.27
2018-12-22T04:36:00.223Z,8.31
2018-12-22T04:37:00.202Z,8.24
2018-12-22T04:38:00.198Z,8.27
2018-12-22T04:39:00.186Z,8.20
2018-12-22T04:40:00.187Z,8.24
2018-12-22T04:41:00.174Z,8.19
2018-12-22T04:42:00.169Z,8.13
2018-12-22T04:43:00.143Z,8.16
2018-12-22T04:44:00.126Z,8.13
2018-12-22T04:45:00.115Z,8.03
2018-12-22T04:46:00.105Z,8.01
2018-12-22T04:47:00.124Z,7.98
2018-12-22T04:48:00.083Z,8.05
2018-12-22T04:49:00.066Z,7.98
2018-12-22T04:50:00.108Z,8.03
2018-12-22T04:51:00.061Z,7.94
2018-12-22T04:52:00.035Z,7.95
2018-12-22T04:53:00.042Z,7.88
2018-12-22T04:54:00.066Z,7.94
2018-12-22T04:55:00.000Z,7.93
2018-12-22T04:55:59.991Z,7.82
2018-12-22T04:56:59.985Z,7.83
2018-12-22T04:57:59.974Z,7.85
2018-12-22T04:58:59.974Z,7.80
2018-12-22T04:59:59.963Z,7.80
2018-12-22T05:00:59.934Z,7.80
2018-12-22T05:01:59.918Z,7.79
2018-12-22T05:02:59.910Z,7.87
2018-12-22T05:03:59.904Z,7.85
2018-12-22T05:04:59.890Z,7.82
2018-12-22T05:05:59.903Z,7.83
2018-12-22T05:06:59.866Z,7.80
2018-12-22T05:07:59.856Z,7.77
2018-12-22T05:08:59.842Z,7.85
2018-12-22T05:09:59.835Z,7.70
2018-12-22T05:10:59.818Z,7.87
2018-12-22T05:11:59.843Z,7.73
2018-12-22T05:12:59.794Z,7.73
2018-12-22T05:13:59.787Z,7.72
2018-12-22T05:14:59.777Z,7.82
2018-12-22T05:15:59.762Z,7.76
2018-12-22T05:16:59.754Z,7.83
2018-12-22T05:17:59.757Z,7.85
2018-12-22T05:18:59.730Z,7.72
2018-12-22T05:19:59.718Z,7.76
2018-12-22T05:20:59.709Z,7.85
2018-12-22T05:21:59.698Z,7.75
2018-12-22T05:22:59.698Z,7.76
2018-12-22T05:23:59.674Z,7.80
2018-12-22T05:24:59.666Z,7.80
2018-12-22T05:25:59.674Z,7.75
2018-12-22T05:26:59.638Z,7.85
2018-12-22T05:27:59.626Z,7.88
2018-12-22T05:28:59.618Z,7.88
2018-12-22T05:29:59.610Z,7.80
2018-12-22T05:30:59.596Z,7.80
2018-12-22T05:31:59.598Z,7.85
2018-12-22T05:32:59.577Z,7.82
2018-12-22T05:33:59.582Z,7.91
2018-12-22T05:34:59.546Z,7.85
2018-12-22T05:35:59.546Z,7.82
2018-12-22T05:36:59.535Z,7.79
2018-12-22T05:37:59.521Z,7.79
2018-12-22T05:38:59.506Z,7.91
2018-12-22T05:39:59.506Z,7.91
2018-12-22T05:40:59.485Z,7.79
2018-12-22T05:41:59.478Z,7.82
2018-12-22T05:42:59.461Z,7.91
2018-12-22T05:43:59.458Z,7.76
2018-12-22T05:44:59.453Z,7.88
2018-12-22T05:45:59.422Z,7.79
2018-12-22T05:46:59.413Z,7.80
2018-12-22T05:47:59.408Z,7.79
2018-12-22T05:48:59.393Z,7.82
2018-12-22T05:49:59.381Z,7.79
2018-12-22T05:50:59.393Z,7.90
2018-12-22T05:51:59.365Z,7.85
2018-12-22T05:52:59.349Z,7.85
2018-12-22T05:53:59.345Z,7.93
2018-12-22T05:54:59.330Z,7.80
2018-12-22T05:55:59.313Z,7.91
2018-12-22T05:56:59.322Z,7.85
2018-12-22T05:57:59.297Z,7.93
2018-12-22T05:58:59.293Z,7.91
2018-12-22T06:00:00.660Z,7.91
2018-12-22T06:00:59.258Z,7.87
2018-12-22T06:01:59.253Z,7.88
2018-12-22T06:02:59.253Z,7.93
2018-12-22T06:03:59.221Z,7.94
2018-12-22T06:04:59.218Z,7.93
2018-12-22T06:05:59.205Z,7.79
2018-12-22T06:06:59.193Z,7.80
2018-12-22T06:07:59.197Z,7.88
2018-12-22T06:08:59.173Z,7.91
2018-12-22T06:09:59.157Z,7.82
2018-12-22T06:10:59.145Z,7.85
2018-12-22T06:11:59.133Z,7.88
2018-12-22T06:12:59.126Z,7.87
2018-12-22T06:13:59.133Z,7.87
2018-12-22T06:14:59.101Z,7.79
2018-12-22T06:15:59.089Z,7.90
2018-12-22T06:16:59.081Z,7.83
2018-12-22T06:17:59.073Z,7.94
2018-12-22T06:18:59.081Z,7.88
2018-12-22T06:19:59.049Z,7.87
2018-12-22T06:20:59.037Z,7.94
2018-12-22T06:21:59.026Z,7.97
2018-12-22T06:22:59.009Z,8.00
2018-12-22T06:23:59.010Z,8.10
2018-12-22T06:24:59.002Z,8.10
2018-12-22T06:25:58.975Z,8.13
2018-12-22T06:26:58.966Z,8.23
2018-12-22T06:27:58.957Z,8.27
2018-12-22T06:28:58.945Z,8.23
2018-12-22T06:29:58.949Z,8.30
2018-12-22T06:30:58.953Z,8.31
2018-12-22T06:31:58.909Z,8.26
2018-12-22T06:32:58.901Z,8.38
2018-12-22T06:33:58.889Z,8.45
2018-12-22T06:34:58.892Z,8.46
2018-12-22T06:35:58.877Z,8.58
2018-12-22T06:36:58.873Z,8.51
2018-12-22T06:37:58.843Z,8.61
2018-12-22T06:38:58.834Z,8.63
2018-12-22T06:39:58.822Z,8.73
2018-12-22T06:40:58.829Z,8.73
2018-12-22T06:41:58.801Z,8.81
2018-12-22T06:42:58.790Z,8.89
2018-12-22T06:43:58.774Z,8.95
2018-12-22T06:44:58.772Z,8.94
2018-12-22T06:45:58.753Z,9.03
2018-12-22T06:46:58.761Z,8.94
2018-12-22T06:47:58.773Z,9.08
2018-12-22T06:48:58.729Z,9.10
2018-12-22T06:49:58.705Z,9.10
2018-12-22T06:50:58.701Z,9.06
2018-12-22T06:51:58.697Z,9.06
2018-12-22T06:52:58.674Z,9.13
2018-12-22T06:53:58.661Z,9.11
2018-12-22T06:54:58.653Z,9.08
2018-12-22T06:55:58.642Z,8.92
2018-12-22T06:56:58.629Z,8.91
2018-12-22T06:57:58.669Z,8.91
2018-12-22T06:58:58.612Z,9.00
2018-12-22T06:59:58.609Z,9.10
2018-12-22T07:00:58.597Z,9.10
2018-12-22T07:01:58.589Z,9.08
2018-12-22T07:02:58.584Z,9.06
2018-12-22T07:03:58.573Z,9.08
2018-12-22T07:04:58.537Z,9.08
2018-12-22T07:05:58.529Z,9.06
2018-12-22T07:06:58.517Z,9.08
2018-12-22T07:07:58.510Z,9.11
2018-12-22T07:08:58.493Z,9.10
2018-12-22T07:09:58.497Z,9.11
2018-12-22T07:10:58.467Z,9.10
2018-12-22T07:11:58.467Z,9.03
2018-12-22T07:12:58.446Z,8.97
2018-12-22T07:13:58.431Z,8.99
2018-12-22T07:14:58.422Z,9.04
2018-12-22T07:15:58.430Z,9.08
2018-12-22T07:16:58.402Z,9.13
2018-12-22T07:17:58.395Z,9.06
2018-12-22T07:18:58.378Z,9.06
2018-12-22T07:19:58.367Z,9.04
2018-12-22T07:20:58.372Z,9.11
2018-12-22T07:21:58.346Z,9.08
2018-12-22T07:22:58.337Z,8.97
2018-12-22T07:23:58.332Z,8.89
2018-12-22T07:24:58.313Z,9.13
2018-12-22T07:25:58.310Z,9.13
2018-12-22T07:26:58.304Z,9.13
2018-12-22T07:27:58.276Z,9.03
2018-12-22T07:28:58.287Z,9.06
2018-12-22T07:29:58.255Z,8.97
2018-12-22T07:30:58.241Z,9.08
2018-12-22T07:31:58.256Z,9.11
2018-12-22T07:32:58.217Z,9.08
2018-12-22T07:33:58.208Z,9.06
2018-12-22T07:34:58.204Z,8.95
2018-12-22T07:35:58.184Z,8.94
2018-12-22T07:36:58.176Z,8.84
2018-12-22T07:37:58.184Z,8.91
2018-12-22T07:38:58.152Z,8.85
2018-12-22T07:39:58.136Z,8.78
2018-12-22T07:40:58.132Z,8.78
2018-12-22T07:41:58.121Z,8.67
2018-12-22T07:42:58.108Z,8.58
2018-12-22T07:43:58.108Z,8.55
2018-12-22T07:44:58.086Z,8.63
2018-12-22T07:45:58.072Z,8.58
2018-12-22T07:46:58.068Z,8.64
2018-12-22T07:47:58.048Z,8.51
2018-12-22T07:48:58.044Z,8.64
2018-12-22T07:49:58.043Z,8.48
2018-12-22T07:50:58.020Z,8.53
2018-12-22T07:51:58.008Z,8.48
2018-12-22T07:52:58.024Z,8.49
2018-12-22T07:53:57.979Z,8.49
2018-12-22T07:54:57.971Z,8.49
2018-12-22T07:55:57.972Z,8.48
2018-12-22T07:56:57.948Z,8.46
2018-12-22T07:57:59.473Z,8.49
2018-12-22T07:58:57.928Z,8.46
2018-12-22T07:59:57.917Z,8.37
2018-12-22T08:00:57.901Z,8.44
2018-12-22T08:01:57.909Z,8.42
2018-12-22T08:02:57.877Z,8.36
2018-12-22T08:03:57.881Z,8.33
2018-12-22T08:04:57.865Z,8.45
2018-12-22T08:05:57.861Z,8.41
2018-12-22T08:06:57.837Z,8.34
2018-12-22T08:07:57.833Z,8.36
2018-12-22T08:08:57.817Z,8.30
2018-12-22T08:09:57.809Z,8.28
2018-12-22T08:10:57.793Z,8.16
2018-12-22T08:11:57.797Z,8.27
2018-12-22T08:12:57.773Z,8.27
2018-12-22T08:13:57.766Z,8.24
2018-12-22T08:14:57.749Z,8.27
2018-12-22T08:15:57.739Z,8.26
2018-12-22T08:16:57.726Z,8.19
2018-12-22T08:17:57.741Z,8.16
2018-12-22T08:18:57.703Z,8.12
2018-12-22T08:19:57.693Z,8.12
2018-12-22T08:20:57.709Z,8.12
2018-12-22T08:21:57.673Z,8.10
2018-12-22T08:22:57.678Z,8.09
2018-12-22T08:23:57.645Z,8.12
2018-12-22T08:24:57.641Z,8.01
2018-12-22T08:25:57.625Z,8.16
2018-12-22T08:26:57.617Z,8.05
2018-12-22T08:27:57.598Z,8.00
2018-12-22T08:28:57.609Z,8.05
2018-12-22T08:29:57.585Z,7.94
2018-12-22T08:30:57.569Z,8.09
2018-12-22T08:31:57.558Z,8.01
2018-12-22T08:32:57.545Z,7.97
2018-12-22T08:33:57.549Z,7.97
2018-12-22T08:34:57.525Z,7.98
2018-12-22T08:35:57.513Z,8.00
2018-12-22T08:36:57.501Z,7.95
2018-12-22T08:37:57.489Z,8.10
2018-12-22T08:38:57.477Z,8.05
2018-12-22T08:39:57.480Z,7.95
2018-12-22T08:40:57.456Z,8.10
2018-12-22T08:41:57.459Z,7.98
2018-12-22T08:42:57.437Z,7.95
2018-12-22T08:43:57.421Z,7.98
2018-12-22T08:44:57.408Z,7.98
2018-12-22T08:45:57.413Z,7.98
2018-12-22T08:46:57.385Z,7.95
2018-12-22T08:47:57.385Z,7.85
2018-12-22T08:48:57.364Z,7.83
2018-12-22T08:49:57.353Z,7.90
2018-12-22T08:50:57.356Z,7.88
2018-12-22T08:51:57.328Z,7.93
2018-12-22T08:52:57.316Z,7.82
2018-12-22T08:53:57.312Z,7.80
2018-12-22T08:54:57.296Z,7.88
2018-12-22T08:55:57.285Z,7.83
2018-12-22T08:56:57.284Z,7.88
2018-12-22T08:57:57.268Z,7.87
2018-12-22T08:58:57.252Z,7.90
2018-12-22T08:59:57.251Z,7.80
2018-12-22T09:00:57.228Z,7.83
2018-12-22T09:01:57.216Z,7.85
2018-12-22T09:02:57.236Z,7.88
2018-12-22T09:03:57.197Z,7.80
2018-12-22T09:04:57.186Z,7.83
2018-12-22T09:05:57.176Z,7.79
2018-12-22T09:06:57.170Z,7.80
2018-12-22T09:07:57.152Z,7.67
2018-12-22T09:08:57.157Z,7.70
2018-12-22T09:09:57.133Z,7.63
2018-12-22T09:10:57.115Z,7.63
2018-12-22T09:11:57.105Z,7.57
2018-12-22T09:12:57.103Z,7.54
2018-12-22T09:13:57.080Z,7.54
2018-12-22T09:14:57.088Z,7.57
2018-12-22T09:15:57.061Z,7.48
2018-12-22T09:16:57.047Z,7.54
2018-12-22T09:17:57.043Z,7.51
2018-12-22T09:18:57.039Z,7.48
2018-12-22T09:19:57.137Z,7.54
2018-12-22T09:20:57.027Z,7.50
2018-12-22T09:21:56.992Z,7.58
2018-12-22T09:22:56.983Z,7.63
2018-12-22T09:23:56.971Z,7.60
2018-12-22T09:24:56.966Z,7.58
2018-12-22T09:25:56.951Z,7.58
2018-12-22T09:26:56.945Z,7.60
2018-12-22T09:27:56.931Z,7.67
2018-12-22T09:28:56.915Z,7.70
2018-12-22T09:29:56.903Z,7.77
2018-12-22T09:31:00.709Z,7.70
2018-12-22T09:31:56.975Z,7.79
2018-12-22T09:32:56.896Z,7.87
2018-12-22T09:33:56.859Z,7.82
2018-12-22T09:34:56.848Z,7.88
2018-12-22T09:35:56.849Z,7.83
2018-12-22T09:36:56.831Z,7.80
2018-12-22T09:37:56.811Z,7.90
2018-12-22T09:38:56.819Z,7.83
2018-12-22T09:39:56.788Z,7.93
2018-12-22T09:40:56.778Z,7.76
2018-12-22T09:41:56.774Z,7.88
2018-12-22T09:42:56.772Z,7.93
2018-12-22T09:43:56.748Z,7.80
2018-12-22T09:44:56.747Z,7.76
2018-12-22T09:45:56.723Z,7.90
2018-12-22T09:46:56.711Z,7.83
2018-12-22T09:47:56.703Z,7.79
2018-12-22T09:48:56.714Z,7.80
2018-12-22T09:49:56.691Z,7.83
2018-12-22T09:50:56.667Z,7.85
2018-12-22T09:51:56.655Z,7.77
2018-12-22T09:52:56.674Z,7.76
2018-12-22T09:53:56.636Z,7.82
2018-12-22T09:54:56.643Z,7.73
2018-12-22T09:55:56.612Z,7.72
2018-12-22T09:56:56.607Z,7.67
2018-12-22T09:57:56.586Z,7.60
2018-12-22T09:58:56.575Z,7.66
2018-12-22T09:59:56.567Z,7.60
2018-12-22T10:00:56.587Z,7.60
2018-12-22T10:01:56.539Z,7.61
2018-12-22T10:02:56.531Z,7.58
2018-12-22T10:03:56.522Z,7.66
2018-12-22T10:04:56.515Z,7.60
2018-12-22T10:05:56.511Z,7.56
2018-12-22T10:06:56.515Z,7.54
2018-12-22T10:07:56.474Z,7.51
2018-12-22T10:08:56.468Z,7.51
2018-12-22T10:09:56.462Z,7.50
2018-12-22T10:10:56.599Z,7.47
2018-12-22T10:11:56.431Z,7.53
2018-12-22T10:12:56.435Z,7.51
2018-12-22T10:13:56.421Z,7.45
2018-12-22T10:14:56.400Z,7.42
2018-12-22T10:15:56.387Z,7.39
2018-12-22T10:16:56.383Z,7.39
2018-12-22T10:17:56.363Z,7.45
2018-12-22T10:18:56.368Z,7.42
2018-12-22T10:19:56.347Z,7.35
2018-12-22T10:20:56.339Z,7.36
2018-12-22T10:21:56.319Z,7.38
2018-12-22T10:22:56.307Z,7.40
2018-12-22T10:23:56.294Z,7.33
2018-12-22T10:24:56.295Z,7.36
2018-12-22T10:25:56.286Z,7.36
2018-12-22T10:26:56.263Z,7.39
2018-12-22T10:27:56.281Z,7.35
2018-12-22T10:28:56.240Z,7.33
2018-12-22T10:29:56.234Z,7.36
2018-12-22T10:30:56.235Z,7.35
2018-12-22T10:31:56.211Z,7.35
2018-12-22T10:32:56.199Z,7.36
2018-12-22T10:33:56.207Z,7.43
2018-12-22T10:34:56.174Z,7.42
2018-12-22T10:35:56.168Z,7.48
2018-12-22T10:36:56.165Z,7.35
2018-12-22T10:37:56.151Z,7.45
2018-12-22T10:38:56.127Z,7.45
2018-12-22T10:39:56.120Z,7.56
2018-12-22T10:40:56.102Z,7.54
2018-12-22T10:41:56.091Z,7.56
2018-12-22T10:42:56.104Z,7.50
2018-12-22T10:43:56.082Z,7.57
2018-12-22T10:44:56.067Z,7.57
2018-12-22T10:45:56.051Z,7.58
2018-12-22T10:46:56.038Z,7.60
2018-12-22T10:47:56.166Z,7.60
2018-12-22T10:48:56.015Z,7.61
2018-12-22T10:49:56.007Z,7.67
2018-12-22T10:50:55.990Z,7.63
2018-12-22T10:51:55.979Z,7.80
2018-12-22T10:52:55.971Z,7.76
2018-12-22T10:53:55.991Z,7.75
2018-12-22T10:54:55.987Z,7.80
2018-12-22T10:55:55.939Z,7.76
2018-12-22T10:56:55.927Z,7.83
2018-12-22T10:57:55.915Z,7.85
2018-12-22T10:58:55.944Z,7.85
2018-12-22T10:59:55.906Z,7.91
2018-12-22T11:00:55.883Z,7.91
2018-12-22T11:01:55.866Z,7.85
2018-12-22T11:02:55.853Z,7.83
2018-12-22T11:03:55.855Z,7.88
2018-12-22T11:04:55.838Z,7.91
2018-12-22T11:05:55.842Z,8.03
2018-12-22T11:06:55.811Z,7.94
2018-12-22T11:07:55.802Z,8.01
2018-12-22T11:08:55.790Z,8.08
2018-12-22T11:09:55.779Z,8.00
2018-12-22T11:10:55.790Z,8.01
2018-12-22T11:11:55.787Z,8.13
2018-12-22T11:12:55.742Z,8.15
2018-12-22T11:13:55.735Z,8.08
2018-12-22T11:14:55.722Z,8.24
2018-12-22T11:15:55.738Z,8.24
2018-12-22T11:16:55.726Z,8.24
2018-12-22T11:17:55.686Z,8.30
2018-12-22T11:18:55.675Z,8.36
2018-12-22T11:19:55.662Z,8.34
2018-12-22T11:20:55.654Z,8.33
2018-12-22T11:21:55.658Z,8.33
2018-12-22T11:22:55.636Z,8.33
2018-12-22T11:23:55.622Z,8.37
2018-12-22T11:24:55.610Z,8.36
2018-12-22T11:25:55.598Z,8.44
2018-12-22T11:26:55.586Z,8.36
2018-12-22T11:27:55.590Z,8.36
2018-12-22T11:28:55.564Z,8.37
2018-12-22T11:29:55.558Z,8.41
2018-12-22T11:30:55.538Z,8.36
2018-12-22T11:31:55.530Z,8.41
2018-12-22T11:32:55.518Z,8.37
2018-12-22T11:33:55.521Z,8.30
2018-12-22T11:34:55.491Z,8.27
2018-12-22T11:35:55.497Z,8.37
2018-12-22T11:36:55.473Z,8.34
2018-12-22T11:37:55.461Z,8.36
2018-12-22T11:38:55.449Z,8.41
2018-12-22T11:39:55.456Z,8.36
2018-12-22T11:40:55.430Z,8.44
2018-12-22T11:41:55.434Z,8.37
2018-12-22T11:42:55.407Z,8.38
2018-12-22T11:43:55.394Z,8.36
2018-12-22T11:44:55.382Z,8.36
2018-12-22T11:45:55.372Z,8.38
2018-12-22T11:46:55.362Z,8.36
2018-12-22T11:47:55.379Z,8.38
2018-12-22T11:48:55.342Z,8.44
2018-12-22T11:49:55.325Z,8.45
2018-12-22T11:50:55.365Z,8.42
2018-12-22T11:51:55.307Z,8.46
2018-12-22T11:52:55.317Z,8.46
2018-12-22T11:53:55.282Z,8.53
2018-12-22T11:54:55.280Z,8.53
2018-12-22T11:55:55.258Z,8.55
2018-12-22T11:56:55.249Z,8.58
2018-12-22T11:57:55.240Z,8.55
2018-12-22T11:58:55.250Z,8.64
2018-12-22T11:59:55.213Z,8.61
2018-12-22T12:00:55.209Z,8.66
2018-12-22T12:01:55.190Z,8.67
2018-12-22T12:02:55.182Z,8.66
2018-12-22T12:03:55.166Z,8.73
2018-12-22T12:04:55.170Z,8.74
2018-12-22T12:05:55.190Z,8.74
2018-12-22T12:06:55.142Z,8.79
2018-12-22T12:07:55.122Z,8.84
2018-12-22T12:08:55.113Z,8.87
2018-12-22T12:09:55.115Z,8.84
2018-12-22T12:10:55.092Z,8.85
2018-12-22T12:11:55.094Z,8.85
2018-12-22T12:12:55.065Z,8.79
2018-12-22T12:13:55.055Z,8.85
2018-12-22T12:14:55.045Z,8.81
2018-12-22T12:15:55.045Z,8.79
2018-12-22T12:16:55.102Z,8.74
2018-12-22T12:17:55.011Z,8.74
2018-12-22T12:18:54.998Z,8.69
2018-12-22T12:19:54.994Z,8.76
2018-12-22T12:20:54.982Z,8.74
2018-12-22T12:21:54.969Z,8.67
2018-12-22T12:22:54.974Z,8.69
2018-12-22T12:23:54.958Z,8.71
2018-12-22T12:24:54.938Z,8.76
2018-12-22T12:25:54.923Z,8.69
2018-12-22T12:26:54.914Z,8.73
2018-12-22T12:27:54.906Z,8.87
2018-12-22T12:28:54.910Z,8.85
2018-12-22T12:29:54.877Z,8.91
2018-12-22T12:30:54.869Z,8.94
2018-12-22T12:31:54.854Z,9.04
2018-12-22T12:32:54.855Z,9.10
2018-12-22T12:33:54.830Z,9.11
2018-12-22T12:34:54.830Z,9.11
2018-12-22T12:35:54.812Z,9.08
2018-12-22T12:36:54.803Z,9.14
2018-12-22T12:37:54.804Z,9.11
2018-12-22T12:38:54.777Z,9.10
2018-12-22T12:39:54.762Z,9.19
2018-12-22T12:40:54.753Z,9.13
2018-12-22T12:41:54.738Z,9.03
2018-12-22T12:42:54.730Z,8.97
2018-12-22T12:43:54.740Z,8.88
2018-12-22T12:44:54.702Z,8.92
2018-12-22T12:45:54.695Z,8.94
2018-12-22T12:46:54.690Z,8.99
2018-12-22T12:47:54.673Z,8.97
2018-12-22T12:48:54.678Z,9.03
2018-12-22T12:49:54.665Z,9.02
2018-12-22T12:50:54.637Z,8.88
2018-12-22T12:51:54.625Z,8.94
2018-12-22T12:52:54.614Z,8.91
2018-12-22T12:53:54.602Z,8.92
2018-12-22T12:54:54.613Z,8.94
2018-12-22T12:55:54.594Z,8.91
2018-12-22T12:56:54.575Z,8.95
2018-12-22T12:57:54.558Z,8.91
2018-12-22T12:58:54.545Z,8.97
2018-12-22T12:59:54.556Z,8.89
2018-12-22T13:00:54.534Z,8.85
2018-12-22T13:02:00.989Z,8.91
2018-12-22T13:02:55.503Z,8.87
2018-12-22T13:03:54.490Z,8.84
2018-12-22T13:04:54.478Z,8.85
2018-12-22T13:05:54.493Z,8.82
2018-12-22T13:06:54.463Z,8.91
2018-12-22T13:07:54.445Z,8.82
2018-12-22T13:08:54.434Z,8.84
2018-12-22T13:09:54.425Z,8.87
2018-12-22T13:10:54.409Z,8.84
2018-12-22T13:11:54.418Z,8.73
2018-12-22T13:12:54.404Z,8.74
2018-12-22T13:13:54.374Z,8.73
2018-12-22T13:14:54.366Z,8.84
2018-12-22T13:15:54.358Z,8.84
2018-12-22T13:16:54.342Z,8.84
2018-12-22T13:17:54.345Z,8.87